sensor_id;sensor_type;location;lat;lon;timestamp;pressure;altitude;pressure_sealevel;temperature;humidity
47883;BME280;37739;50.350;7.578;2023-04-05T00:01:51;100469.84;;;5.29;50.85
47883;BME280;37739;50.350;7.578;2023-04-05T00:04:17;100466.50;;;5.30;49.89
47883;BME280;37739;50.350;7.578;2023-04-05T00:06:47;100469.03;;;5.30;50.13
47883;BME280;37739;50.350;7.578;2023-04-05T00:09:19;100468.94;;;5.29;50.28
47883;BME280;37739;50.350;7.578;2023-04-05T00:11:45;100463.66;;;5.26;50.01
47883;BME280;37739;50.350;7.578;2023-04-05T00:14:13;100466.09;;;5.24;50.41
47883;BME280;37739;50.350;7.578;2023-04-05T00:16:41;100465.88;;;5.21;50.67
47883;BME280;37739;50.350;7.578;2023-04-05T00:19:06;100462.66;;;5.24;50.17
47883;BME280;37739;50.350;7.578;2023-04-05T00:21:32;100457.47;;;5.22;50.89
47883;BME280;37739;50.350;7.578;2023-04-05T00:24:00;100459.59;;;5.16;50.84
47883;BME280;37739;50.350;7.578;2023-04-05T00:26:25;100452.53;;;5.12;51.13
47883;BME280;37739;50.350;7.578;2023-04-05T00:28:55;100449.09;;;5.11;50.98
47883;BME280;37739;50.350;7.578;2023-04-05T00:31:24;100449.09;;;5.11;51.36
47883;BME280;37739;50.350;7.578;2023-04-05T00:33:49;100454.56;;;5.04;51.55
47883;BME280;37739;50.350;7.578;2023-04-05T00:36:16;100449.13;;;5.00;52.04
47883;BME280;37739;50.350;7.578;2023-04-05T00:38:45;100443.72;;;4.95;53.12
47883;BME280;37739;50.350;7.578;2023-04-05T00:41:12;100444.50;;;4.94;52.88
47883;BME280;37739;50.350;7.578;2023-04-05T00:43:38;100440.31;;;4.95;52.32
47883;BME280;37739;50.350;7.578;2023-04-05T00:46:06;100441.06;;;4.94;52.98
47883;BME280;37739;50.350;7.578;2023-04-05T00:48:40;100437.44;;;4.90;53.37
47883;BME280;37739;50.350;7.578;2023-04-05T00:51:09;100438.00;;;4.86;53.47
47883;BME280;37739;50.350;7.578;2023-04-05T00:53:36;100438.00;;;4.86;53.38
47883;BME280;37739;50.350;7.578;2023-04-05T00:56:02;100433.78;;;4.86;53.32
47883;BME280;37739;50.350;7.578;2023-04-05T00:58:28;100435.91;;;4.80;53.39
47883;BME280;37739;50.350;7.578;2023-04-05T01:01:09;100438.22;;;4.77;53.71
47883;BME280;37739;50.350;7.578;2023-04-05T01:03:43;100432.84;;;4.72;55.00
47883;BME280;37739;50.350;7.578;2023-04-05T01:09:10;100430.09;;;4.58;55.52
47883;BME280;37739;50.350;7.578;2023-04-05T01:11:39;100420.47;;;4.53;54.70
47883;BME280;37739;50.350;7.578;2023-04-05T01:14:06;100420.28;;;4.50;55.04
47883;BME280;37739;50.350;7.578;2023-04-05T01:16:31;100425.69;;;4.43;56.15
47883;BME280;37739;50.350;7.578;2023-04-05T01:18:59;100418.41;;;4.36;55.28
47883;BME280;37739;50.350;7.578;2023-04-05T01:37:18;100420.06;;;4.24;55.37
47883;BME280;37739;50.350;7.578;2023-04-05T01:39:45;100416.53;;;4.22;55.49
47883;BME280;37739;50.350;7.578;2023-04-05T01:42:21;100415.31;;;4.17;55.55
47883;BME280;37739;50.350;7.578;2023-04-05T01:44:49;100412.09;;;4.07;56.09
47883;BME280;37739;50.350;7.578;2023-04-05T01:47:17;100409.13;;;4.01;56.54
47883;BME280;37739;50.350;7.578;2023-04-05T01:49:45;100402.19;;;3.99;57.08
47883;BME280;37739;50.350;7.578;2023-04-05T01:52:10;100401.72;;;3.92;56.99
47883;BME280;37739;50.350;7.578;2023-04-05T01:54:36;100403.38;;;3.92;56.95
47883;BME280;37739;50.350;7.578;2023-04-05T01:57:01;100405.78;;;3.90;57.41
47883;BME280;37739;50.350;7.578;2023-04-05T01:59:32;100403.25;;;3.90;57.55
47883;BME280;37739;50.350;7.578;2023-04-05T02:01:57;100403.16;;;3.89;57.99
47883;BME280;37739;50.350;7.578;2023-04-05T02:04:22;100400.72;;;3.79;58.29
47883;BME280;37739;50.350;7.578;2023-04-05T02:06:48;100403.34;;;3.68;58.53
47883;BME280;37739;50.350;7.578;2023-04-05T02:09:13;100405.00;;;3.68;59.64
47883;BME280;37739;50.350;7.578;2023-04-05T02:11:38;100404.34;;;3.70;58.08
47883;BME280;37739;50.350;7.578;2023-04-05T02:14:04;100390.13;;;3.72;58.88
47883;BME280;37739;50.350;7.578;2023-04-05T02:16:29;100390.22;;;3.74;58.54
47883;BME280;37739;50.350;7.578;2023-04-05T02:18:59;100393.53;;;3.73;58.61
47883;BME280;37739;50.350;7.578;2023-04-05T02:21:25;100392.09;;;3.65;58.93
47883;BME280;37739;50.350;7.578;2023-04-05T02:23:54;100388.44;;;3.61;59.07
47883;BME280;37739;50.350;7.578;2023-04-05T02:26:21;100391.28;;;3.54;59.68
47883;BME280;37739;50.350;7.578;2023-04-05T02:28:49;100392.19;;;3.54;59.35
47883;BME280;37739;50.350;7.578;2023-04-05T02:31:15;100396.34;;;3.54;60.30
47883;BME280;37739;50.350;7.578;2023-04-05T02:33:42;100394.72;;;3.54;59.88
47883;BME280;37739;50.350;7.578;2023-04-05T02:36:11;100392.63;;;3.49;59.75
47883;BME280;37739;50.350;7.578;2023-04-05T02:38:37;100385.75;;;3.48;59.72
47883;BME280;37739;50.350;7.578;2023-04-05T02:41:02;100385.44;;;3.43;60.00
47883;BME280;37739;50.350;7.578;2023-04-05T02:43:30;100383.06;;;3.34;59.93
47883;BME280;37739;50.350;7.578;2023-04-05T02:45:58;100384.97;;;3.37;60.94
47883;BME280;37739;50.350;7.578;2023-04-05T02:48:28;100383.19;;;3.36;60.88
47883;BME280;37739;50.350;7.578;2023-04-05T02:50:55;100379.75;;;3.24;61.12
47883;BME280;37739;50.350;7.578;2023-04-05T02:53:23;100380.16;;;3.18;61.55
47883;BME280;37739;50.350;7.578;2023-04-05T02:55:55;100389.31;;;3.16;62.05
47883;BME280;37739;50.350;7.578;2023-04-05T02:58:24;100387.72;;;3.06;61.41
47883;BME280;37739;50.350;7.578;2023-04-05T03:00:54;100385.94;;;3.05;60.98
47883;BME280;37739;50.350;7.578;2023-04-05T03:03:22;100382.63;;;2.94;62.72
47883;BME280;37739;50.350;7.578;2023-04-05T03:05:58;100382.25;;;2.90;62.73
47883;BME280;37739;50.350;7.578;2023-04-05T03:08:42;100375.19;;;2.86;62.89
47883;BME280;37739;50.350;7.578;2023-04-05T03:11:12;100380.38;;;2.87;64.03
47883;BME280;37739;50.350;7.578;2023-04-05T03:13:37;100372.34;;;2.93;61.92
47883;BME280;37739;50.350;7.578;2023-04-05T03:16:03;100377.19;;;2.90;62.47
47883;BME280;37739;50.350;7.578;2023-04-05T03:18:29;100372.78;;;2.87;62.24
47883;BME280;37739;50.350;7.578;2023-04-05T03:20:57;100371.41;;;2.81;63.35
47883;BME280;37739;50.350;7.578;2023-04-05T03:23:29;100369.66;;;2.80;63.02
47883;BME280;37739;50.350;7.578;2023-04-05T03:26:02;100360.78;;;2.74;63.02
47883;BME280;37739;50.350;7.578;2023-04-05T03:28:30;100375.53;;;2.68;63.61
47883;BME280;37739;50.350;7.578;2023-04-05T03:31:00;100365.41;;;2.68;62.78
47883;BME280;37739;50.350;7.578;2023-04-05T03:33:28;100363.03;;;2.60;63.53
47883;BME280;37739;50.350;7.578;2023-04-05T03:35:56;100362.69;;;2.55;63.90
47883;BME280;37739;50.350;7.578;2023-04-05T03:38:24;100358.28;;;2.52;63.51
47883;BME280;37739;50.350;7.578;2023-04-05T03:40:51;100365.16;;;2.43;64.57
47883;BME280;37739;50.350;7.578;2023-04-05T03:43:19;100367.28;;;2.49;64.64
47883;BME280;37739;50.350;7.578;2023-04-05T03:45:44;100376.03;;;2.42;64.52
47883;BME280;37739;50.350;7.578;2023-04-05T03:48:10;100372.63;;;2.42;65.16
47883;BME280;37739;50.350;7.578;2023-04-05T03:50:38;100372.34;;;2.39;64.49
47883;BME280;37739;50.350;7.578;2023-04-05T03:53:03;100370.47;;;2.36;64.59
47883;BME280;37739;50.350;7.578;2023-04-05T03:55:29;100369.59;;;2.35;64.36
47883;BME280;37739;50.350;7.578;2023-04-05T03:57:57;100373.00;;;2.36;64.33
47883;BME280;37739;50.350;7.578;2023-04-05T04:00:23;100366.28;;;2.36;63.69
47883;BME280;37739;50.350;7.578;2023-04-05T04:02:51;100377.34;;;2.37;63.44
47883;BME280;37739;50.350;7.578;2023-04-05T04:05:17;100371.00;;;2.32;63.79
47883;BME280;37739;50.350;7.578;2023-04-05T04:07:43;100379.25;;;2.29;63.11
47883;BME280;37739;50.350;7.578;2023-04-05T04:10:13;100376.22;;;2.23;64.09
47883;BME280;37739;50.350;7.578;2023-04-05T04:12:39;100379.19;;;2.18;64.07
47883;BME280;37739;50.350;7.578;2023-04-05T04:15:07;100377.00;;;2.22;63.28
47883;BME280;37739;50.350;7.578;2023-04-05T04:17:34;100378.66;;;2.22;63.27
47883;BME280;37739;50.350;7.578;2023-04-05T04:20:01;100374.50;;;2.12;64.63
47883;BME280;37739;50.350;7.578;2023-04-05T04:22:26;100379.44;;;2.10;64.24
47883;BME280;37739;50.350;7.578;2023-04-05T04:24:58;100379.19;;;2.07;64.84
47883;BME280;37739;50.350;7.578;2023-04-05T04:27:27;100370.38;;;2.02;65.04
47883;BME280;37739;50.350;7.578;2023-04-05T04:29:55;100375.53;;;2.04;64.04
47883;BME280;37739;50.350;7.578;2023-04-05T04:32:27;100368.56;;;2.01;64.48
47883;BME280;37739;50.350;7.578;2023-04-05T04:35:12;100367.56;;;1.99;64.53
47883;BME280;37739;50.350;7.578;2023-04-05T04:37:45;100364.44;;;1.91;64.62
47883;BME280;37739;50.350;7.578;2023-04-05T04:40:13;100368.22;;;1.86;65.26
47883;BME280;37739;50.350;7.578;2023-04-05T04:42:41;100361.16;;;1.82;65.32
47883;BME280;37739;50.350;7.578;2023-04-05T04:45:08;100366.47;;;1.75;66.84
47883;BME280;37739;50.350;7.578;2023-04-05T04:47:36;100374.06;;;1.75;67.00
47883;BME280;37739;50.350;7.578;2023-04-05T04:50:02;100367.59;;;1.79;66.54
47883;BME280;37739;50.350;7.578;2023-04-05T04:52:31;100375.06;;;1.77;66.76
47883;BME280;37739;50.350;7.578;2023-04-05T04:54:57;100370.28;;;1.70;67.54
47883;BME280;37739;50.350;7.578;2023-04-05T04:57:23;100371.31;;;1.72;67.12
47883;BME280;37739;50.350;7.578;2023-04-05T04:59:49;100377.63;;;1.67;66.98
47883;BME280;37739;50.350;7.578;2023-04-05T05:02:15;100381.31;;;1.60;67.81
47883;BME280;37739;50.350;7.578;2023-04-05T05:04:43;100377.41;;;1.64;66.74
47883;BME280;37739;50.350;7.578;2023-04-05T05:07:08;100375.75;;;1.64;67.50
47883;BME280;37739;50.350;7.578;2023-04-05T05:09:37;100376.63;;;1.65;67.45
47883;BME280;37739;50.350;7.578;2023-04-05T05:12:05;100377.66;;;1.56;67.89
47883;BME280;37739;50.350;7.578;2023-04-05T05:14:35;100374.84;;;1.53;68.07
47883;BME280;37739;50.350;7.578;2023-04-05T05:17:03;100379.03;;;1.53;67.37
47883;BME280;37739;50.350;7.578;2023-04-05T05:19:32;100370.56;;;1.52;67.72
47883;BME280;37739;50.350;7.578;2023-04-05T05:22:00;100375.72;;;1.54;67.62
47883;BME280;37739;50.350;7.578;2023-04-05T05:24:27;100377.38;;;1.53;67.94
47883;BME280;37739;50.350;7.578;2023-04-05T05:26:53;100377.25;;;1.52;67.09
47883;BME280;37739;50.350;7.578;2023-04-05T05:29:20;100370.56;;;1.52;67.40
47883;BME280;37739;50.350;7.578;2023-04-05T05:31:46;100370.44;;;1.51;68.14
47883;BME280;37739;50.350;7.578;2023-04-05T05:34:11;100368.03;;;1.52;67.84
47883;BME280;37739;50.350;7.578;2023-04-05T05:36:39;100379.53;;;1.49;68.76
47883;BME280;37739;50.350;7.578;2023-04-05T05:39:05;100369.66;;;1.52;67.95
47883;BME280;37739;50.350;7.578;2023-04-05T05:41:35;100372.84;;;1.49;68.33
47883;BME280;37739;50.350;7.578;2023-04-05T05:44:00;100375.84;;;1.55;67.90
47883;BME280;37739;50.350;7.578;2023-04-05T05:46:31;100376.38;;;1.51;68.64
47883;BME280;37739;50.350;7.578;2023-04-05T05:48:57;100380.16;;;1.56;68.42
47883;BME280;37739;50.350;7.578;2023-04-05T05:51:22;100378.13;;;1.63;68.38
47883;BME280;37739;50.350;7.578;2023-04-05T05:53:47;100374.88;;;1.64;68.55
47883;BME280;37739;50.350;7.578;2023-04-05T05:56:13;100380.16;;;1.67;68.38
47883;BME280;37739;50.350;7.578;2023-04-05T05:58:41;100376.38;;;1.72;67.71
47883;BME280;37739;50.350;7.578;2023-04-05T06:01:08;100380.78;;;1.74;68.24
47883;BME280;37739;50.350;7.578;2023-04-05T06:03:38;100376.38;;;1.72;68.41
47883;BME280;37739;50.350;7.578;2023-04-05T06:06:03;100380.78;;;1.74;68.04
47883;BME280;37739;50.350;7.578;2023-04-05T06:08:32;100386.84;;;1.76;67.68
47883;BME280;37739;50.350;7.578;2023-04-05T06:10:58;100381.16;;;1.79;68.32
47883;BME280;37739;50.350;7.578;2023-04-05T06:13:23;100385.31;;;1.79;67.91
47883;BME280;37739;50.350;7.578;2023-04-05T06:15:49;100383.28;;;1.85;67.52
47883;BME280;37739;50.350;7.578;2023-04-05T06:18:14;100391.25;;;1.89;67.90
47883;BME280;37739;50.350;7.578;2023-04-05T06:20:44;100390.00;;;1.84;68.17
47883;BME280;37739;50.350;7.578;2023-04-05T06:23:10;100394.53;;;1.88;67.58
47883;BME280;37739;50.350;7.578;2023-04-05T06:25:38;100394.94;;;1.93;67.79
47883;BME280;37739;50.350;7.578;2023-04-05T06:28:06;100395.41;;;1.99;67.54
47883;BME280;37739;50.350;7.578;2023-04-05T06:30:32;100403.25;;;2.02;67.15
47883;BME280;37739;50.350;7.578;2023-04-05T06:32:59;100399.69;;;2.10;67.05
47883;BME280;37739;50.350;7.578;2023-04-05T06:35:27;100400.91;;;2.15;66.88
47883;BME280;37739;50.350;7.578;2023-04-05T06:37:57;100403.06;;;2.21;66.28
47883;BME280;37739;50.350;7.578;2023-04-05T06:40:22;100392.31;;;2.24;66.26
47883;BME280;37739;50.350;7.578;2023-04-05T06:42:47;100394.31;;;2.28;66.35
47883;BME280;37739;50.350;7.578;2023-04-05T06:45:15;100381.13;;;2.32;65.17
47883;BME280;37739;50.350;7.578;2023-04-05T06:47:41;100394.94;;;2.35;65.69
47883;BME280;37739;50.350;7.578;2023-04-05T06:50:07;100396.28;;;2.42;64.79
47883;BME280;37739;50.350;7.578;2023-04-05T06:52:34;100394.25;;;2.48;64.61
47883;BME280;37739;50.350;7.578;2023-04-05T06:55:02;100390.00;;;2.59;63.86
47883;BME280;37739;50.350;7.578;2023-04-05T06:57:29;100387.31;;;2.68;62.88
47883;BME280;37739;50.350;7.578;2023-04-05T06:59:57;100383.38;;;2.71;63.15
47883;BME280;37739;50.350;7.578;2023-04-05T07:02:22;100388.53;;;2.73;63.29
47883;BME280;37739;50.350;7.578;2023-04-05T07:04:50;100382.72;;;2.74;63.17
47883;BME280;37739;50.350;7.578;2023-04-05T07:07:15;100386.84;;;2.84;62.29
47883;BME280;37739;50.350;7.578;2023-04-05T07:09:44;100386.19;;;2.86;62.49
47883;BME280;37739;50.350;7.578;2023-04-05T07:12:09;100382.72;;;2.96;61.90
47883;BME280;37739;50.350;7.578;2023-04-05T07:14:36;100386.38;;;3.00;61.02
47883;BME280;37739;50.350;7.578;2023-04-05T07:17:07;100381.75;;;3.06;61.11
47883;BME280;37739;50.350;7.578;2023-04-05T07:19:32;100377.63;;;3.18;60.45
47883;BME280;37739;50.350;7.578;2023-04-05T07:22:03;100374.31;;;3.19;60.57
47883;BME280;37739;50.350;7.578;2023-04-05T07:24:28;100376.00;;;3.30;60.52
47883;BME280;37739;50.350;7.578;2023-04-05T07:26:54;100375.88;;;3.29;60.37
47883;BME280;37739;50.350;7.578;2023-04-05T07:29:22;100373.63;;;3.44;59.36
47883;BME280;37739;50.350;7.578;2023-04-05T07:31:47;100370.22;;;3.55;58.47
47883;BME280;37739;50.350;7.578;2023-04-05T07:34:12;100375.19;;;3.65;57.65
47883;BME280;37739;50.350;7.578;2023-04-05T07:36:40;100375.00;;;3.74;58.00
47883;BME280;37739;50.350;7.578;2023-04-05T07:39:10;100372.91;;;3.92;57.38
47883;BME280;37739;50.350;7.578;2023-04-05T07:41:38;100377.34;;;4.06;57.16
47883;BME280;37739;50.350;7.578;2023-04-05T07:44:03;100376.69;;;4.09;56.11
47883;BME280;37739;50.350;7.578;2023-04-05T07:46:29;100373.94;;;4.18;55.77
47883;BME280;37739;50.350;7.578;2023-04-05T07:48:54;100378.09;;;4.29;55.50
47883;BME280;37739;50.350;7.578;2023-04-05T07:51:20;100381.97;;;4.36;55.63
47883;BME280;37739;50.350;7.578;2023-04-05T07:53:48;100368.47;;;4.48;55.58
47883;BME280;37739;50.350;7.578;2023-04-05T07:56:15;100375.41;;;4.63;54.90
47883;BME280;37739;50.350;7.578;2023-04-05T07:58:41;100366.53;;;4.69;54.28
47883;BME280;37739;50.350;7.578;2023-04-05T08:01:09;100366.28;;;4.78;55.42
47883;BME280;37739;50.350;7.578;2023-04-05T08:03:36;100365.94;;;4.85;55.13
47883;BME280;37739;50.350;7.578;2023-04-05T08:06:14;100360.47;;;5.04;54.75
47883;BME280;37739;50.350;7.578;2023-04-05T08:08:46;100351.09;;;5.17;54.20
47883;BME280;37739;50.350;7.578;2023-04-05T08:11:14;100354.16;;;5.24;53.42
47883;BME280;37739;50.350;7.578;2023-04-05T08:13:39;100355.25;;;5.28;53.13
47883;BME280;37739;50.350;7.578;2023-04-05T08:16:07;100345.00;;;5.40;52.90
47883;BME280;37739;50.350;7.578;2023-04-05T08:18:34;100345.72;;;5.50;53.12
47883;BME280;37739;50.350;7.578;2023-04-05T08:21:00;100343.75;;;5.60;53.29
47883;BME280;37739;50.350;7.578;2023-04-05T08:23:28;100344.47;;;5.70;52.85
47883;BME280;37739;50.350;7.578;2023-04-05T08:25:56;100345.44;;;5.73;52.18
47883;BME280;37739;50.350;7.578;2023-04-05T08:28:21;100351.25;;;5.83;51.94
47883;BME280;37739;50.350;7.578;2023-04-05T08:30:46;100341.72;;;5.94;50.93
47883;BME280;37739;50.350;7.578;2023-04-05T08:33:12;100347.44;;;6.03;50.96
47883;BME280;37739;50.350;7.578;2023-04-05T08:35:38;100337.53;;;6.21;51.04
47883;BME280;37739;50.350;7.578;2023-04-05T08:38:05;100337.72;;;6.38;50.22
47883;BME280;37739;50.350;7.578;2023-04-05T08:40:42;100340.88;;;6.62;49.72
47883;BME280;37739;50.350;7.578;2023-04-05T08:45:46;100340.03;;;6.90;48.48
47883;BME280;37739;50.350;7.578;2023-04-05T08:48:18;100342.22;;;6.83;49.03
47883;BME280;37739;50.350;7.578;2023-04-05T08:50:52;100330.31;;;7.12;49.09
47883;BME280;37739;50.350;7.578;2023-04-05T08:53:18;100332.53;;;7.36;48.57
47883;BME280;37739;50.350;7.578;2023-04-05T08:55:48;100332.13;;;7.43;47.60
47883;BME280;37739;50.350;7.578;2023-04-05T08:58:19;100331.13;;;7.56;45.67
47883;BME280;37739;50.350;7.578;2023-04-05T09:00:46;100331.47;;;7.62;47.25
47883;BME280;37739;50.350;7.578;2023-04-05T09:03:15;100325.84;;;7.67;46.21
47883;BME280;37739;50.350;7.578;2023-04-05T09:05:47;100333.75;;;7.87;47.11
47883;BME280;37739;50.350;7.578;2023-04-05T09:08:13;100320.38;;;7.76;45.82
47883;BME280;37739;50.350;7.578;2023-04-05T09:10:39;100327.22;;;8.07;46.77
47883;BME280;37739;50.350;7.578;2023-04-05T09:13:11;100332.00;;;8.32;46.12
47883;BME280;37739;50.350;7.578;2023-04-05T09:15:42;100330.13;;;8.44;45.93
47883;BME280;37739;50.350;7.578;2023-04-05T09:18:10;100325.97;;;8.47;45.14
47883;BME280;37739;50.350;7.578;2023-04-05T09:20:42;100333.03;;;8.36;44.43
47883;BME280;37739;50.350;7.578;2023-04-05T09:23:10;100330.25;;;8.62;43.45
47883;BME280;37739;50.350;7.578;2023-04-05T09:25:37;100316.41;;;8.92;44.56
47883;BME280;37739;50.350;7.578;2023-04-05T09:28:09;100322.16;;;9.20;43.34
47883;BME280;37739;50.350;7.578;2023-04-05T09:30:42;100314.97;;;8.97;40.02
47883;BME280;37739;50.350;7.578;2023-04-05T09:33:15;100313.91;;;9.10;41.66
47883;BME280;37739;50.350;7.578;2023-04-05T09:35:43;100313.47;;;9.35;42.31
47883;BME280;37739;50.350;7.578;2023-04-05T09:38:08;100308.31;;;9.17;40.74
47883;BME280;37739;50.350;7.578;2023-04-05T09:40:46;100306.25;;;9.44;40.25
47883;BME280;37739;50.350;7.578;2023-04-05T09:43:34;100306.59;;;9.68;38.48
47883;BME280;37739;50.350;7.578;2023-04-05T09:46:00;100307.75;;;9.57;40.04
47883;BME280;37739;50.350;7.578;2023-04-05T09:51:17;100303.41;;;10.10;40.10
47883;BME280;37739;50.350;7.578;2023-04-05T09:56:25;100293.75;;;10.40;38.12
47883;BME280;37739;50.350;7.578;2023-04-05T09:58:51;100294.34;;;10.34;37.44
47883;BME280;37739;50.350;7.578;2023-04-05T10:01:18;100291.78;;;10.54;39.34
47883;BME280;37739;50.350;7.578;2023-04-05T10:03:48;100303.84;;;10.74;38.25
47883;BME280;37739;50.350;7.578;2023-04-05T10:06:17;100293.78;;;11.19;38.48
47883;BME280;37739;50.350;7.578;2023-04-05T10:08:48;100296.56;;;11.24;37.93
47883;BME280;37739;50.350;7.578;2023-04-05T10:11:17;100299.25;;;11.27;36.83
47883;BME280;37739;50.350;7.578;2023-04-05T10:13:42;100289.03;;;10.88;36.59
47883;BME280;37739;50.350;7.578;2023-04-05T10:16:17;100281.34;;;10.69;35.76
47883;BME280;37739;50.350;7.578;2023-04-05T10:18:51;100277.66;;;11.03;37.00
47883;BME280;37739;50.350;7.578;2023-04-05T10:21:25;100281.41;;;10.90;35.99
47883;BME280;37739;50.350;7.578;2023-04-05T10:24:17;100270.78;;;11.02;34.79
47883;BME280;37739;50.350;7.578;2023-04-05T10:26:54;100274.94;;;11.40;35.77
47883;BME280;37739;50.350;7.578;2023-04-05T10:29:32;100278.06;;;11.54;33.94
47883;BME280;37739;50.350;7.578;2023-04-05T10:32:10;100278.16;;;11.55;34.63
47883;BME280;37739;50.350;7.578;2023-04-05T10:40:10;100271.16;;;11.74;36.01
47883;BME280;37739;50.350;7.578;2023-04-05T10:42:43;100276.56;;;11.80;34.82
47883;BME280;37739;50.350;7.578;2023-04-05T10:45:12;100268.16;;;12.05;35.25
47883;BME280;37739;50.350;7.578;2023-04-05T10:47:49;100261.31;;;12.52;34.05
47883;BME280;37739;50.350;7.578;2023-04-05T10:50:20;100259.66;;;12.54;33.49
47883;BME280;37739;50.350;7.578;2023-04-05T10:52:48;100257.66;;;12.46;33.77
47883;BME280;37739;50.350;7.578;2023-04-05T10:55:18;100258.09;;;12.58;34.22
47883;BME280;37739;50.350;7.578;2023-04-05T10:57:45;100258.81;;;12.78;32.24
47883;BME280;37739;50.350;7.578;2023-04-05T11:00:14;100253.81;;;12.83;32.23
47883;BME280;37739;50.350;7.578;2023-04-05T11:02:40;100256.94;;;12.98;32.79
47883;BME280;37739;50.350;7.578;2023-04-05T11:05:30;100255.44;;;12.10;31.93
47883;BME280;37739;50.350;7.578;2023-04-05T11:08:12;100245.72;;;12.48;32.96
47883;BME280;37739;50.350;7.578;2023-04-05T11:10:39;100245.50;;;13.15;33.44
47883;BME280;37739;50.350;7.578;2023-04-05T11:13:11;100250.16;;;13.51;32.91
47883;BME280;37739;50.350;7.578;2023-04-05T11:15:37;100242.59;;;13.58;32.86
47883;BME280;37739;50.350;7.578;2023-04-05T11:20:42;100241.75;;;13.31;31.98
47883;BME280;37739;50.350;7.578;2023-04-05T11:23:09;100237.09;;;13.21;31.99
47883;BME280;37739;50.350;7.578;2023-04-05T11:25:44;100239.47;;;12.65;31.10
47883;BME280;37739;50.350;7.578;2023-04-05T11:28:21;100233.88;;;12.77;30.85
47883;BME280;37739;50.350;7.578;2023-04-05T11:30:48;100240.03;;;12.81;31.16
47883;BME280;37739;50.350;7.578;2023-04-05T11:33:37;100231.53;;;12.59;29.41
47883;BME280;37739;50.350;7.578;2023-04-05T11:36:05;100233.03;;;13.02;31.25
47883;BME280;37739;50.350;7.578;2023-04-05T11:38:31;100230.19;;;13.73;30.94
47883;BME280;37739;50.350;7.578;2023-04-05T11:41:17;100225.38;;;13.84;28.50
47883;BME280;37739;50.350;7.578;2023-04-05T11:43:45;100225.06;;;13.46;30.51
47883;BME280;37739;50.350;7.578;2023-04-05T11:46:20;100218.56;;;13.86;30.96
47883;BME280;37739;50.350;7.578;2023-04-05T11:48:48;100213.59;;;13.92;30.95
47883;BME280;37739;50.350;7.578;2023-04-05T11:51:15;100214.13;;;13.82;30.87
47883;BME280;37739;50.350;7.578;2023-04-05T11:53:47;100205.16;;;13.69;30.11
47883;BME280;37739;50.350;7.578;2023-04-05T11:56:17;100203.06;;;13.57;30.75
47883;BME280;37739;50.350;7.578;2023-04-05T11:58:44;100198.63;;;14.10;29.29
47883;BME280;37739;50.350;7.578;2023-04-05T12:01:09;100191.31;;;14.24;29.69
47883;BME280;37739;50.350;7.578;2023-04-05T12:03:36;100191.69;;;14.08;28.45
47883;BME280;37739;50.350;7.578;2023-04-05T12:06:03;100193.31;;;14.34;28.85
47883;BME280;37739;50.350;7.578;2023-04-05T12:11:08;100187.47;;;14.72;27.80
47883;BME280;37739;50.350;7.578;2023-04-05T12:13:36;100187.41;;;14.39;28.17
47883;BME280;37739;50.350;7.578;2023-04-05T12:16:07;100188.91;;;14.94;26.94
47883;BME280;37739;50.350;7.578;2023-04-05T12:18:34;100188.03;;;15.28;27.35
47883;BME280;37739;50.350;7.578;2023-04-05T12:21:06;100185.38;;;14.90;25.92
47883;BME280;37739;50.350;7.578;2023-04-05T12:23:37;100189.16;;;15.03;28.13
47883;BME280;37739;50.350;7.578;2023-04-05T12:26:03;100180.19;;;14.90;27.29
47883;BME280;37739;50.350;7.578;2023-04-05T12:28:52;100182.03;;;14.95;26.31
47883;BME280;37739;50.350;7.578;2023-04-05T12:31:44;100175.19;;;14.97;26.13
47883;BME280;37739;50.350;7.578;2023-04-05T12:34:12;100176.31;;;14.73;26.61
47883;BME280;37739;50.350;7.578;2023-04-05T12:36:38;100171.66;;;14.60;26.60
47883;BME280;37739;50.350;7.578;2023-04-05T12:39:08;100180.41;;;14.66;27.13
47883;BME280;37739;50.350;7.578;2023-04-05T12:41:35;100174.06;;;15.22;25.49
47883;BME280;37739;50.350;7.578;2023-04-05T12:44:14;100170.66;;;15.23;24.16
47883;BME280;37739;50.350;7.578;2023-04-05T12:49:05;100160.47;;;15.29;25.31
47883;BME280;37739;50.350;7.578;2023-04-05T12:51:34;100155.78;;;15.88;26.21
47883;BME280;37739;50.350;7.578;2023-04-05T12:54:06;100158.59;;;15.98;24.20
47883;BME280;37739;50.350;7.578;2023-04-05T12:56:31;100158.59;;;15.99;26.11
47883;BME280;37739;50.350;7.578;2023-04-05T12:58:57;100151.50;;;16.33;24.88
47883;BME280;37739;50.350;7.578;2023-04-05T13:01:25;100149.59;;;16.23;24.38
47883;BME280;37739;50.350;7.578;2023-04-05T13:03:53;100145.75;;;16.04;24.41
47883;BME280;37739;50.350;7.578;2023-04-05T13:06:22;100148.03;;;15.50;23.33
47883;BME280;37739;50.350;7.578;2023-04-05T13:08:48;100140.34;;;15.54;23.76
47883;BME280;37739;50.350;7.578;2023-04-05T13:11:13;100131.16;;;15.68;24.28
47883;BME280;37739;50.350;7.578;2023-04-05T13:13:38;100126.41;;;15.45;22.62
47883;BME280;37739;50.350;7.578;2023-04-05T13:16:04;100124.34;;;16.11;24.32
47883;BME280;37739;50.350;7.578;2023-04-05T13:18:34;100122.56;;;16.08;23.81
47883;BME280;37739;50.350;7.578;2023-04-05T13:21:00;100123.91;;;16.34;24.67
47883;BME280;37739;50.350;7.578;2023-04-05T13:23:29;100121.31;;;16.34;23.92
47883;BME280;37739;50.350;7.578;2023-04-05T13:25:54;100120.59;;;16.41;24.69
47883;BME280;37739;50.350;7.578;2023-04-05T13:28:19;100123.09;;;16.36;23.86
47883;BME280;37739;50.350;7.578;2023-04-05T13:30:50;100115.28;;;16.82;23.85
47883;BME280;37739;50.350;7.578;2023-04-05T13:33:20;100114.44;;;17.39;22.94
47883;BME280;37739;50.350;7.578;2023-04-05T13:35:45;100108.94;;;17.18;23.30
47883;BME280;37739;50.350;7.578;2023-04-05T13:38:11;100108.22;;;16.73;23.49
47883;BME280;37739;50.350;7.578;2023-04-05T13:40:36;100100.13;;;17.06;22.88
47883;BME280;37739;50.350;7.578;2023-04-05T13:43:07;100089.81;;;17.74;22.54
47883;BME280;37739;50.350;7.578;2023-04-05T13:45:34;100093.81;;;18.16;22.40